Stations météo

Publicité
Besancon, France (7288): Température de l'air & dewpoint: 22.03.2020 21:00:00 - 28.03.2020 21:00:00 (CET)Besancon, France (7288): Température de l'air 5cm: 22.03.2020 21:00:00 - 28.03.2020 21:00:00 (CET)Besancon, France (7288): Température de l'air -20cm & Température de l'air -100cm: 22.03.2020 21:00:00 - 28.03.2020 21:00:00 (CET)Besancon, France (7288): Vitesse du vent & gusts: 22.03.2020 21:00:00 - 28.03.2020 21:00:00 (CET)Besancon, France (7288): Direction du vent: 22.03.2020 21:00:00 - 28.03.2020 21:00:00 (CET)Besancon, France (7288): reduced air pressure: 22.03.2020 21:00:00 - 28.03.2020 21:00:00 (CET)Besancon, France (7288): Ensoleillement: 22.03.2020 21:00:00 - 28.03.2020 21:00:00 (CET)Besancon, France (7288): Quantités de précipitations: 22.03.2020 21:00:00 - 28.03.2020 21:00:00 (CET)
Date & Time tt [°C] td [°C] tt 5cm [°C] tt -20cm [°C] tt -100cm [°C] ff [km/h] ff [knt] fx [km/h] fx [knt] dd ppp [hPa] sd [min] rr [mm]
28.03.2020 21:00:00 - - - - - - - - - - - - -
28.03.2020 20:00:00 13,9 4,2 10,1 9,3 9,1 4 2 8 5 NNW 1016,5 0 0,0
28.03.2020 19:00:00 15,0 4,1 11,2 9,2 9,1 3 2 11 6 NNW 1015,8 31 0,0
28.03.2020 18:00:00 16,4 4,4 17,0 9,0 9,1 5 3 15 8 N 1015,2 57 0,0
28.03.2020 17:00:00 17,0 4,0 22,2 8,8 9,1 8 4 21 11 N 1015,0 60 0,0
28.03.2020 16:00:00 16,9 3,6 23,8 8,6 9,1 10 5 18 10 N 1015,1 60 0,0
28.03.2020 15:00:00 16,8 4,1 28,0 8,4 9,1 9 5 18 10 N 1015,5 60 0,0
28.03.2020 14:00:00 16,1 4,2 28,7 8,2 9,1 8 5 18 10 NNW 1016,1 60 0,0
28.03.2020 13:00:00 15,1 3,6 26,6 8,1 9,1 6 4 15 8 NNW 1016,8 60 0,0
28.03.2020 12:00:00 13,7 3,5 24,9 8,0 9,1 4 2 13 7 W 1017,3 60 0,0
28.03.2020 11:00:00 12,8 2,6 21,2 8,0 9,1 4 2 9 5 W 1017,7 60 0,0
28.03.2020 10:00:00 10,3 2,4 14,7 8,1 9,1 0 0 8 4 N 1018,4 60 0,0
28.03.2020 09:00:00 6,8 1,7 5,0 8,2 9,1 0 0 5 3 N 1018,9 60 0,0
28.03.2020 08:00:00 2,5 0,1 -2,1 8,3 9,1 0 0 4 2 N 1019,4 30 0,0
28.03.2020 07:00:00 0,8 -0,7 -3,5 8,4 9,1 0 0 0 0 N 1019,3 0 0,0
28.03.2020 06:00:00 0,7 -0,6 -3,4 8,5 9,1 0 0 3 2 N 1018,9 0 0,0
28.03.2020 05:00:00 1,4 -0,1 -3,4 8,6 9,2 2 1 4 2 NE 1018,5 0 0,0
28.03.2020 04:00:00 1,6 -0,3 -2,6 8,6 9,2 0 0 3 2 N 1018,3 0 0,0
28.03.2020 03:00:00 2,1 -0,2 -2,1 8,7 9,2 0 0 5 3 N 1018,1 0 0,0
28.03.2020 02:00:00 3,3 0,2 -1,3 8,7 9,2 0 0 2 1 N 1017,9 0 0,0
28.03.2020 01:00:00 3,8 0,5 -0,5 8,8 9,2 0 0 3 2 N 1017,7 0 0,0
28.03.2020 00:00:00 4,5 0,6 -0,3 8,8 9,2 0 0 4 2 N 1017,6 0 0,0
27.03.2020 23:00:00 5,2 0,6 0,3 8,8 9,2 0 0 0 0 N 1017,4 0 0,0
27.03.2020 22:00:00 6,0 0,3 0,8 8,8 9,1 0 0 3 2 N 1017,1 0 0,0
27.03.2020 21:00:00 7,6 0,3 2,4 8,7 9,1 0 0 5 3 N 1016,8 0 0,0
27.03.2020 20:00:00 9,2 0,6 4,7 8,7 9,2 3 1 11 6 NNE 1016,3 0 0,0
27.03.2020 19:00:00 10,7 1,0 7,5 8,6 9,2 5 3 16 8 N 1015,5 20 0,0
27.03.2020 18:00:00 12,0 1,0 12,0 8,4 9,2 8 4 16 9 NNW 1014,8 40 0,0
27.03.2020 17:00:00 13,2 0,9 19,1 8,2 9,2 5 3 17 9 N 1014,2 54 0,0
27.03.2020 16:00:00 13,7 1,3 20,6 8,0 9,2 7 4 18 10 NW 1014,0 60 0,0
27.03.2020 15:00:00 12,8 -0,1 21,7 7,9 9,2 7 4 21 11 NNW 1014,2 57 0,0
27.03.2020 14:00:00 12,1 0,5 23,0 7,7 9,2 9 5 22 12 NNW 1014,3 60 0,0
27.03.2020 13:00:00 11,4 -0,1 24,1 7,6 9,2 8 5 18 10 N 1014,6 60 0,0
27.03.2020 12:00:00 10,3 0,0 22,4 7,5 9,2 5 3 14 7 N 1014,8 60 0,0
27.03.2020 11:00:00 9,0 -0,6 19,2 7,6 9,2 6 4 14 8 NNE 1015,4 60 0,0
27.03.2020 10:00:00 7,6 -0,6 15,0 7,6 9,2 4 2 10 5 NW 1015,7 60 0,0
27.03.2020 09:00:00 5,9 -1,5 6,5 7,7 9,2 0 0 7 4 N 1015,7 60 0,0
27.03.2020 08:00:00 2,4 -2,5 -2,9 7,9 9,2 3 2 6 3 NNE 1015,8 31 0,0
27.03.2020 07:00:00 0,5 -2,7 -4,1 7,9 9,2 0 0 7 4 N 1015,9 0 0,0
27.03.2020 06:00:00 0,6 -2,8 -3,9 8,0 9,2 4 2 11 6 NE 1015,6 0 0,0
27.03.2020 05:00:00 1,2 -2,7 -3,1 8,1 9,2 4 2 15 8 NE 1015,5 0 0,0
27.03.2020 04:00:00 1,7 -2,8 -2,8 8,2 9,2 5 3 14 7 NE 1015,3 0 0,0
27.03.2020 03:00:00 1,6 -2,9 -3,6 8,2 9,2 5 3 10 5 NNE 1015,3 0 0,0
27.03.2020 02:00:00 1,7 -3,2 -3,5 8,3 9,2 4 2 9 5 NE 1015,3 0 0,0
27.03.2020 01:00:00 1,9 -3,2 -3,2 8,4 9,2 7 4 11 6 NNE 1015,4 0 0,0
27.03.2020 00:00:00 2,5 -3,6 -2,8 8,4 9,2 4 2 13 7 NNE 1015,7 0 0,0
26.03.2020 23:00:00 3,7 -3,8 -1,8 8,4 9,3 7 4 13 7 NNE 1015,6 0 0,0
26.03.2020 22:00:00 4,8 -4,0 0,3 8,4 9,2 6 3 19 10 NNE 1016,0 0 0,0
26.03.2020 21:00:00 5,5 -3,6 1,6 8,4 9,3 6 3 16 9 NNE 1015,8 0 0,0
26.03.2020 20:00:00 6,2 -4,0 3,1 8,4 9,2 5 3 25 14 ENE 1015,6 0 0,0
26.03.2020 19:00:00 7,0 -4,1 4,1 8,3 9,2 10 6 29 16 NE 1014,8 35 0,0
26.03.2020 18:00:00 8,3 -3,6 8,9 8,2 9,3 7 4 23 13 NE 1014,2 28 0,0
26.03.2020 17:00:00 9,8 -3,9 13,3 8,0 9,2 14 8 35 19 NE 1013,7 55 0,0
26.03.2020 16:00:00 10,0 -3,3 17,6 7,9 9,2 10 5 31 17 NE 1013,8 60 0,0
26.03.2020 15:00:00 9,9 -3,4 21,9 7,7 9,2 9 5 28 15 NE 1014,0 60 0,0
26.03.2020 14:00:00 9,4 -2,9 21,2 7,6 9,3 7 4 30 16 ENE 1014,6 60 0,0
26.03.2020 13:00:00 8,1 -1,7 20,8 7,6 9,3 13 7 24 13 N 1014,9 60 0,0
26.03.2020 12:00:00 6,7 -0,8 17,7 7,5 9,3 11 6 24 13 N 1015,6 57 0,0
26.03.2020 11:00:00 6,4 -1,8 11,1 7,6 9,3 4 2 16 9 NE 1015,6 56 0,0
26.03.2020 10:00:00 4,7 -3,8 6,3 7,6 9,3 2 1 10 5 NE 1015,8 0 0,0
26.03.2020 09:00:00 2,7 -5,0 2,9 7,7 9,3 4 2 11 6 NE 1015,5 0 0,0
26.03.2020 08:00:00 1,1 -6,0 -2,4 7,8 9,3 3 2 14 8 NE 1015,4 3 0,0
26.03.2020 07:00:00 -0,3 -6,5 -4,5 7,9 9,3 3 2 14 8 ENE 1015,1 0 0,0
26.03.2020 06:00:00 -0,2 -6,6 -3,9 8,0 9,3 4 2 21 11 ENE 1014,4 0 0,0
26.03.2020 05:00:00 -0,1 -6,5 -4,7 8,1 9,3 5 3 14 8 ENE 1014,4 0 0,0
26.03.2020 04:00:00 0,5 -6,6 -4,0 8,2 9,3 5 3 14 8 NE 1014,3 0 0,0
26.03.2020 03:00:00 0,9 -6,4 -3,4 8,2 9,3 6 3 17 9 NE 1014,4 0 0,0
26.03.2020 02:00:00 1,3 -6,5 -3,4 8,3 9,3 5 3 15 8 NE 1014,7 0 0,0
26.03.2020 01:00:00 2,3 -6,6 -2,0 8,4 9,3 5 3 23 13 ENE 1015,0 0 0,0
26.03.2020 00:00:00 2,8 -6,6 -0,8 8,4 9,3 5 3 25 14 NE 1015,3 0 0,0
25.03.2020 23:00:00 3,7 -6,3 -1,8 8,5 9,4 7 4 23 13 NE 1015,5 0 0,0
25.03.2020 22:00:00 3,6 -6,4 -1,8 8,5 9,4 5 3 21 11 NE 1015,8 0 0,0
25.03.2020 21:00:00 4,5 -6,4 -0,7 8,5 9,4 4 2 16 9 NE 1016,3 0 0,0
25.03.2020 20:00:00 5,8 -7,1 1,5 8,5 9,4 9 5 29 16 NE 1016,0 0 0,0
25.03.2020 19:00:00 6,9 -7,2 3,1 8,4 9,4 8 5 22 12 NE 1015,6 28 0,0
25.03.2020 18:00:00 8,5 -5,4 10,2 8,2 9,4 6 3 28 15 ENE 1015,5 60 0,0
25.03.2020 17:00:00 9,8 -4,6 15,9 8,1 9,4 6 3 34 18 ENE 1015,4 60 0,0
25.03.2020 16:00:00 9,9 -5,3 17,8 7,9 9,4 9 5 32 17 NE 1015,9 60 0,0
25.03.2020 15:00:00 9,9 -5,3 20,7 7,8 9,4 8 4 36 19 NE 1016,4 60 0,0
25.03.2020 14:00:00 10,0 -6,4 22,1 7,7 9,4 9 5 31 17 ENE 1017,4 60 0,0
25.03.2020 13:00:00 8,8 -7,0 20,8 7,7 9,4 12 6 42 23 NE 1018,4 60 0,0
25.03.2020 12:00:00 7,4 -6,0 21,3 7,6 9,4 15 8 34 19 NE 1019,3 60 0,0
25.03.2020 11:00:00 7,0 -5,4 16,5 7,7 9,4 8 4 27 14 NE 1020,2 60 0,0
25.03.2020 10:00:00 4,8 -6,4 10,3 7,8 9,4 9 5 30 16 NE 1021,4 60 0,0
25.03.2020 09:00:00 2,7 -6,4 1,4 7,9 9,4 11 6 34 18 NE 1022,1 60 0,0
25.03.2020 08:00:00 0,7 -6,6 -4,0 8,0 9,4 11 6 21 11 NE 1022,7 26 0,0
25.03.2020 07:00:00 -0,8 -7,0 -6,3 8,1 9,4 5 3 18 10 NE 1023,0 0 0,0
25.03.2020 06:00:00 -0,9 -6,7 -5,9 8,2 9,4 6 3 18 10 NE 1023,0 0 0,0
25.03.2020 05:00:00 0,5 -6,6 -4,3 8,3 9,4 5 3 17 9 NE 1023,1 0 0,0
25.03.2020 04:00:00 0,6 -6,7 -5,0 8,4 9,4 5 3 19 10 NE 1023,2 0 0,0
25.03.2020 03:00:00 1,1 -6,5 -3,5 8,5 9,4 6 3 14 8 NE 1023,4 0 0,0
25.03.2020 02:00:00 2,1 -6,5 -1,5 8,5 9,4 3 1 21 11 NNE 1023,6 0 0,0
25.03.2020 01:00:00 2,5 -6,4 -1,7 8,6 9,4 6 4 26 14 ENE 1023,4 0 0,0
25.03.2020 00:00:00 2,9 -6,3 -1,7 8,7 9,4 6 4 21 11 ENE 1023,4 0 0,0
24.03.2020 23:00:00 3,4 -6,6 -1,6 8,7 9,4 7 4 23 12 ENE 1023,4 0 0,0
24.03.2020 22:00:00 4,1 -7,1 -1,2 8,7 9,4 5 3 19 10 ENE 1023,7 0 0,0
24.03.2020 21:00:00 5,5 -7,4 1,4 8,7 9,5 8 4 24 13 NE 1023,0 0 0,0
24.03.2020 20:00:00 6,9 -7,5 1,3 8,7 9,4 11 6 30 16 NE 1022,5 0 0,0
24.03.2020 19:00:00 8,0 -7,7 3,1 8,6 9,4 8 4 24 13 NE 1021,9 27 0,0
24.03.2020 18:00:00 10,1 -8,1 11,3 8,5 9,4 9 5 28 15 NE 1021,5 60 0,0
24.03.2020 17:00:00 10,7 -7,1 16,9 8,4 9,4 6 3 38 21 ENE 1021,7 60 0,0
24.03.2020 16:00:00 10,4 -7,4 17,7 8,2 9,4 11 6 38 21 NE 1022,2 60 0,0
24.03.2020 15:00:00 10,5 -5,9 20,4 8,1 9,4 11 6 41 22 NE 1022,6 60 0,0
24.03.2020 14:00:00 9,5 -7,7 20,6 8,0 9,4 16 9 43 23 NE 1023,3 60 0,0
24.03.2020 13:00:00 8,8 -7,0 20,0 8,0 9,4 11 6 39 21 NE 1024,0 60 0,0
24.03.2020 12:00:00 7,7 -9,3 18,8 8,0 9,4 9 5 40 22 NE 1024,7 60 0,0
24.03.2020 11:00:00 6,7 -9,7 15,1 8,1 9,4 7 4 30 16 NE 1025,3 60 0,0
24.03.2020 10:00:00 5,0 -10,0 11,1 8,2 9,4 10 6 28 15 NE 1025,6 60 0,0
24.03.2020 09:00:00 2,8 -9,8 0,9 8,3 9,4 10 5 28 15 NE 1026,2 60 0,0
24.03.2020 08:00:00 0,8 -11,3 -5,2 8,5 9,4 8 4 26 14 NE 1026,7 22 0,0
24.03.2020 07:00:00 -1,3 -10,9 -7,4 8,6 9,4 5 3 18 10 NE 1026,9 0 0,0
24.03.2020 06:00:00 -1,8 -10,9 -7,2 8,7 9,4 3 1 14 8 NE 1026,9 0 0,0
24.03.2020 05:00:00 -1,1 -10,0 -5,9 8,8 9,4 6 3 19 10 NE 1026,8 0 0,0
24.03.2020 04:00:00 -0,7 -9,9 -5,4 8,9 9,4 7 4 18 10 NE 1026,8 0 0,0
24.03.2020 03:00:00 0,0 -9,5 -4,4 9,0 9,4 5 3 22 12 NE 1026,5 0 0,0
24.03.2020 02:00:00 1,1 -9,3 -2,7 9,1 9,4 10 5 26 14 NE 1026,6 0 0,0
24.03.2020 01:00:00 1,7 -9,0 -2,7 9,2 9,4 7 4 22 12 NE 1026,1 0 0,0
24.03.2020 00:00:00 2,7 -9,0 -2,0 9,3 9,4 6 3 29 16 NE 1026,0 0 0,0
23.03.2020 23:00:00 3,4 -9,3 -0,8 9,3 9,4 5 3 22 12 ENE 1026,0 0 0,0
23.03.2020 22:00:00 4,0 -9,1 -1,8 9,4 9,4 5 3 19 11 ENE 1026,1 0 0,0
23.03.2020 21:00:00 4,8 -9,0 -2,0 9,4 9,4 4 2 19 11 NE 1025,7 0 0,0
23.03.2020 20:00:00 5,4 -8,9 -1,7 9,4 9,4 4 2 20 11 NE 1025,6 0 0,0
23.03.2020 19:00:00 7,5 -9,9 3,1 9,4 9,4 7 4 29 16 ENE 1024,6 25 0,0
23.03.2020 18:00:00 9,4 -7,3 10,0 9,3 9,4 11 6 32 17 NE 1024,0 60 0,0
23.03.2020 17:00:00 9,9 -6,9 13,8 9,2 9,4 16 9 46 25 NE 1023,8 60 0,0
23.03.2020 16:00:00 10,1 -6,3 16,3 9,1 9,4 20 11 49 27 NNE 1023,8 60 0,0
23.03.2020 15:00:00 10,5 -4,7 19,7 9,0 9,4 17 9 44 24 NE 1023,7 60 0,0
23.03.2020 14:00:00 10,3 -3,8 22,3 8,9 9,4 10 6 37 20 NE 1024,2 60 0,0
23.03.2020 13:00:00 9,2 -4,1 20,6 8,9 9,4 10 6 35 19 ENE 1024,8 60 0,0
23.03.2020 12:00:00 7,5 -3,1 19,4 8,9 9,4 13 7 35 19 NE 1025,3 60 0,0
23.03.2020 11:00:00 6,7 -3,8 16,2 9,0 9,4 9 5 29 16 NE 1025,4 60 0,0
23.03.2020 10:00:00 4,4 -5,1 9,7 9,1 9,4 11 6 30 16 ENE 1025,5 60 0,0
23.03.2020 09:00:00 2,4 -6,0 0,4 9,2 9,4 11 6 29 16 NE 1025,5 60 0,0
23.03.2020 08:00:00 0,3 -6,4 -4,6 9,4 9,4 7 4 21 12 ENE 1026,3 20 0,0
23.03.2020 07:00:00 -1,2 -6,6 -4,9 9,5 9,4 5 3 21 11 ENE 1026,1 0 0,0
23.03.2020 06:00:00 -0,7 -6,3 -4,6 9,7 9,4 6 3 14 8 NE 1025,8 0 0,0
23.03.2020 05:00:00 -0,2 -6,2 -3,9 9,8 9,4 6 3 20 11 NE 1025,2 0 0,0
23.03.2020 04:00:00 0,3 -6,1 -3,5 9,9 9,4 5 3 19 11 NE 1024,8 0 0,0
23.03.2020 03:00:00 0,7 -6,2 -3,0 10,0 9,4 7 4 28 15 ENE 1024,6 0 0,0
23.03.2020 02:00:00 1,6 -6,0 -1,4 10,1 9,4 9 5 25 14 NE 1024,0 0 0,0
23.03.2020 01:00:00 2,5 -4,9 -1,6 10,2 9,3 9 5 24 13 NE 1023,6 0 0,0
23.03.2020 00:00:00 3,3 -3,7 -0,8 10,2 9,2 7 4 28 15 ENE 1023,3 0 0,0
22.03.2020 23:00:00 4,4 -3,4 1,3 10,4 9,4 8 4 36 19 ENE 1023,0 0 0,0
22.03.2020 22:00:00 5,6 -3,0 2,0 10,4 9,2 8 4 32 17 NE 1022,4 0 0,0
22.03.2020 21:00:00 6,1 -2,8 1,4 10,4 9,3 7 4 23 12 ENE 1021,8 0 0,0

tt = Température de l'air
td = dewpoint
tt 5cm = Température de l'air 5cm
tt -20cm = Température de l'air -20cm
tt -100cm = Température de l'air -100cm
ff = Vitesse du vent
fx = gusts
dd = Direction du vent
ppp = reduced air pressure
sd = Ensoleillement
rr = Quantités de précipitations

stations d'obs. à proximité